Pagrindinis puslapis
METAR-TAF:

METAR-TAF

Oro uostai :

Paraguaná, Venesuela

platuma: 11-47N, ilguma: 070-09W, Aukštis: 23 m

METAR: trūkstamas

Laikas: 10:33 (14:33 UTC)

Prognozė

Ataskaita buvo paskelbta 4 valandos ir 33 minutes, ne 10:00 UTC
Prognozė galioja nuo 14 metu 12 UTC su 15 metu 12 UTC
Vėjas 2 kt iš Rytų
Matomumas 10 km arba daugiau
Mažai debesys ne aukštis 1600 ft
Tapsmas
nuo 14 metu 12 UTC su 14 metu 20 UTC
Vėjas 3 kt iš Rytų/Šiaurės Rytų
Matomumas 10 km arba daugiau
Mažai debesys ne aukštis 2000 ft
Išsisklaidę debesys ne aukštis 1600 ft

TAF: SVJC 141000Z 1412/1512 09002KT 9999 FEW016 TX35/19Z TN24/08Z BECMG 1412/1420 07003KT 9999 FEW020 SCT016

Orai ataskaitas ir orų prognozės (METAR, TAF).

turimą stotys yra geltonos ir raudonos taškus žemėlapyje.

Perkelti pele per norėdami pamatyti stoties vardą.

Tada spustelėkite, norėdami matyti oro stebėjimo ir prognozės.

Norėdami pakeisti žemėlapį: spustelėkite ant žalios mygtukų su juodo kryžiaus žemyn,; žalią mygtuką su brūkšneliu, jei norite nutolinti; arba žalių rodyklių gretimoms žemėlapius.


METAR-TAF: